Time;durP1;ratioP1;P1;durP2;ratioP2;P2;SDS_P1;SDS_P2;PMS_P1;PMS_P2;Temp;Humidity;BMP_temperature;BMP_pressure;BME280_temperature;BME280_humidity;BME280_pressure;Samples;Min_cycle;Max_cycle;Signal;HPM_P1;HPM_P2
2023/03/16 00:00:32;;;;;;;;;;;3.70;99.90;;;;;;4918135;29;20026;-81
2023/03/16 00:02:59;;;;;;;;;;;3.70;99.90;;;;;;4912889;29;19923;-81
2023/03/16 00:05:27;;;;;;;;;;;3.70;99.90;;;;;;4911782;29;19981;-81
2023/03/16 00:07:54;;;;;;;;;;;3.70;99.90;;;;;;4919368;29;19923;-81
2023/03/16 00:10:26;;;;;;;;;;;3.70;99.90;;;;;;4917836;29;19951;-80
2023/03/16 00:12:53;;;;;;;;;;;3.70;99.90;;;;;;4917516;29;19931;-80
2023/03/16 00:15:20;;;;;;;;;;;3.60;99.90;;;;;;4914792;29;19931;-79
2023/03/16 00:17:47;;;;;;;;;;;3.70;99.90;;;;;;4914821;29;19949;-81
2023/03/16 00:20:14;;;;;;;;;;;3.70;99.90;;;;;;4908674;29;19951;-81
2023/03/16 00:22:41;;;;;;;;;;;3.60;99.90;;;;;;4918028;29;19927;-80
2023/03/16 00:25:08;;;;;;;;;;;3.60;99.90;;;;;;4917246;29;20022;-80
2023/03/16 00:27:37;;;;;;;;;;;3.70;99.90;;;;;;4921788;29;19927;-80
2023/03/16 00:30:04;;;;;;;;;;;3.70;99.90;;;;;;4921986;29;19986;-80
2023/03/16 00:32:33;;;;;;;;;;;3.70;99.90;;;;;;4919176;29;19948;-80
2023/03/16 00:35:01;;;;;;;;;;;3.70;99.90;;;;;;4921264;29;19951;-79
2023/03/16 00:37:31;;;;;;;;;;;3.80;99.90;;;;;;4922195;29;19973;-80
2023/03/16 00:40:00;;;;;;;;;;;3.80;99.90;;;;;;4922388;29;20356;-78
2023/03/16 00:42:30;;;;;;;;;;;3.80;99.90;;;;;;4912519;29;20434;-80
2023/03/16 00:45:00;;;;;;;;;;;3.80;99.90;;;;;;4919337;29;19931;-79
2023/03/16 00:47:28;;;;;;;;;;;3.80;99.90;;;;;;4928474;29;19934;-80
2023/03/16 00:49:56;;;;;;;;;;;3.80;99.90;;;;;;4912977;29;19927;-79
2023/03/16 00:52:22;;;;;;;;;;;3.80;99.90;;;;;;4920277;29;19923;-79
2023/03/16 00:54:51;;;;;;;;;;;3.80;99.90;;;;;;4919027;29;19931;-80
2023/03/16 00:57:19;;;;;;;;;;;3.80;99.90;;;;;;4919542;29;20022;-80
2023/03/16 00:59:46;;;;;;;;;;;3.90;99.90;;;;;;4927148;29;20642;-80
2023/03/16 01:02:15;;;;;;;;;;;3.90;99.90;;;;;;4928987;29;19970;-79
2023/03/16 01:04:42;;;;;;;;;;;3.90;99.90;;;;;;4920411;29;20328;-79
2023/03/16 01:07:11;;;;;;;;;;;4.00;99.90;;;;;;4919298;29;19927;-79
2023/03/16 01:09:38;;;;;;;;;;;4.00;99.90;;;;;;4920128;29;20017;-80
2023/03/16 01:12:06;;;;;;;;;;;4.10;99.90;;;;;;4920882;29;19961;-79
2023/03/16 01:14:34;;;;;;;;;;;4.10;99.90;;;;;;4918756;29;19938;-79
2023/03/16 01:17:01;;;;;;;;;;;4.10;99.90;;;;;;4908932;29;19955;-79
2023/03/16 01:19:34;;;;;;;;;;;4.20;99.90;;;;;;4914186;29;19935;-79
2023/03/16 01:22:01;;;;;;;;;;;4.20;99.90;;;;;;4925109;28;19987;-79
2023/03/16 01:24:28;;;;;;;;;;;4.20;99.90;;;;;;4929897;29;19931;-80
2023/03/16 01:26:56;;;;;;;;;;;4.20;99.90;;;;;;4919222;29;20603;-80
2023/03/16 01:29:24;;;;;;;;;;;4.20;99.90;;;;;;4917907;29;20376;-81
2023/03/16 01:31:52;;;;;;;;;;;4.20;99.90;;;;;;4918742;29;19927;-80
2023/03/16 01:34:19;;;;;;;;;;;4.20;99.90;;;;;;4919208;29;19927;-79
2023/03/16 01:36:48;;;;;;;;;;;4.20;99.90;;;;;;4917501;29;19937;-80
2023/03/16 01:39:22;;;;;;;;;;;4.30;99.90;;;;;;4936683;29;19978;-80
2023/03/16 01:41:50;;;;;;;;;;;4.20;99.90;;;;;;4920085;29;19933;-80
2023/03/16 01:44:18;;;;;;;;;;;4.30;99.90;;;;;;4918446;29;20005;-79
2023/03/16 01:46:46;;;;;;;;;;;4.20;99.90;;;;;;4920239;29;19974;-79
2023/03/16 01:49:14;;;;;;;;;;;4.30;99.90;;;;;;4936820;29;20064;-80
2023/03/16 01:51:43;;;;;;;;;;;4.30;99.90;;;;;;4938507;29;19927;-80
2023/03/16 01:54:15;;;;;;;;;;;4.30;99.90;;;;;;4921866;29;19926;-80
2023/03/16 01:56:44;;;;;;;;;;;4.30;99.90;;;;;;4918647;29;19947;-81
2023/03/16 01:59:13;;;;;;;;;;;4.30;99.90;;;;;;4918798;29;19927;-80
2023/03/16 02:01:40;;;;;;;;;;;4.40;99.90;;;;;;4918064;29;19934;-81
2023/03/16 02:04:17;;;;;;;;;;;4.40;99.90;;;;;;4918104;29;19926;-80
2023/03/16 02:06:45;;;;;;;;;;;4.40;99.90;;;;;;4915826;29;20046;-79
2023/03/16 02:09:13;;;;;;;;;;;4.40;99.90;;;;;;4914885;29;19923;-79
2023/03/16 02:11:41;;;;;;;;;;;4.40;99.90;;;;;;4924246;29;19923;-80
2023/03/16 02:14:12;;;;;;;;;;;4.40;99.90;;;;;;4923707;29;19932;-80
2023/03/16 02:16:41;;;;;;;;;;;4.40;99.90;;;;;;4928278;29;19931;-81
2023/03/16 02:19:11;;;;;;;;;;;4.40;99.90;;;;;;4933234;29;19923;-81
2023/03/16 02:21:45;;;;;;;;;;;4.50;99.90;;;;;;4920803;29;19985;-79
2023/03/16 02:24:12;;;;;;;;;;;4.50;99.90;;;;;;4918866;29;20002;-80
2023/03/16 02:26:44;;;;;;;;;;;4.50;99.90;;;;;;4919156;29;19930;-80
2023/03/16 02:29:20;;;;;;;;;;;4.50;99.90;;;;;;4922021;29;19958;-81
2023/03/16 02:31:50;;;;;;;;;;;4.50;99.90;;;;;;4921167;29;19923;-80
2023/03/16 02:34:17;;;;;;;;;;;4.50;99.90;;;;;;4919137;29;20379;-81
2023/03/16 02:36:46;;;;;;;;;;;4.50;99.90;;;;;;4919218;29;19934;-80
2023/03/16 02:39:13;;;;;;;;;;;4.50;99.90;;;;;;4918852;29;19927;-80
2023/03/16 02:41:45;;;;;;;;;;;4.50;99.90;;;;;;4918547;29;19927;-80
2023/03/16 02:44:15;;;;;;;;;;;4.50;99.90;;;;;;4917759;29;19947;-79
2023/03/16 02:46:43;;;;;;;;;;;4.50;99.90;;;;;;4933651;29;19945;-79
2023/03/16 02:49:16;;;;;;;;;;;4.50;99.90;;;;;;4914604;29;19962;-79
2023/03/16 02:51:43;;;;;;;;;;;4.50;99.90;;;;;;4915431;29;19927;-79
2023/03/16 02:54:11;;;;;;;;;;;4.50;99.90;;;;;;4915081;29;20006;-80
2023/03/16 02:56:39;;;;;;;;;;;4.50;99.90;;;;;;4915414;29;20610;-79
2023/03/16 02:59:06;;;;;;;;;;;4.50;99.90;;;;;;4915489;29;19969;-79
2023/03/16 03:01:33;;;;;;;;;;;4.50;99.90;;;;;;4915885;29;19923;-80
2023/03/16 03:04:01;;;;;;;;;;;4.50;99.90;;;;;;4916122;29;20002;-79
2023/03/16 03:06:31;;;;;;;;;;;4.50;99.90;;;;;;4918192;29;19934;-80
2023/03/16 03:08:58;;;;;;;;;;;4.50;99.90;;;;;;4913909;29;19923;-80
2023/03/16 03:11:25;;;;;;;;;;;4.50;99.90;;;;;;4899141;29;19927;-80
2023/03/16 03:13:54;;;;;;;;;;;4.50;99.90;;;;;;4923446;29;19929;-81
2023/03/16 03:16:24;;;;;;;;;;;4.50;99.90;;;;;;4883326;29;20316;-81
2023/03/16 03:18:52;;;;;;;;;;;4.50;99.90;;;;;;4914755;29;20339;-81
2023/03/16 03:21:19;;;;;;;;;;;4.50;99.90;;;;;;4917064;29;19937;-80
2023/03/16 03:23:48;;;;;;;;;;;4.60;99.90;;;;;;4924465;29;19926;-80
2023/03/16 03:26:15;;;;;;;;;;;4.50;99.90;;;;;;4933419;29;20304;-80
2023/03/16 03:28:43;;;;;;;;;;;4.60;99.90;;;;;;4916989;29;19935;-80
2023/03/16 03:31:16;;;;;;;;;;;4.60;99.90;;;;;;4919979;29;19927;-80
2023/03/16 03:33:43;;;;;;;;;;;4.60;99.90;;;;;;4920578;29;19923;-82
2023/03/16 03:36:11;;;;;;;;;;;4.60;99.90;;;;;;4935319;28;19980;-82
2023/03/16 03:38:39;;;;;;;;;;;4.60;99.90;;;;;;4920101;29;19930;-81
2023/03/16 03:41:12;;;;;;;;;;;4.60;99.90;;;;;;4919095;29;20280;-82
2023/03/16 03:43:40;;;;;;;;;;;4.60;99.90;;;;;;4917758;29;20014;-83
2023/03/16 03:46:13;;;;;;;;;;;4.60;99.90;;;;;;4928397;29;20380;-85
2023/03/16 03:48:40;;;;;;;;;;;4.60;99.90;;;;;;4911191;29;19941;-85
2023/03/16 03:51:07;;;;;;;;;;;4.60;99.90;;;;;;4918570;29;19947;-84
2023/03/16 03:53:42;;;;;;;;;;;4.60;99.90;;;;;;4917924;29;19927;-84
2023/03/16 03:56:43;;;;;;;;;;;4.60;99.90;;;;;;4907472;29;19949;-84
2023/03/16 03:59:15;;;;;;;;;;;4.60;99.90;;;;;;4930856;29;19923;-84
2023/03/16 04:02:00;;;;;;;;;;;4.70;99.90;;;;;;4937553;29;20399;-83
2023/03/16 04:04:37;;;;;;;;;;;4.70;99.90;;;;;;4930896;29;20372;-84
2023/03/16 04:07:05;;;;;;;;;;;4.60;99.90;;;;;;4925121;29;20014;-83
2023/03/16 04:09:32;;;;;;;;;;;4.70;99.90;;;;;;4924740;29;19947;-84
2023/03/16 04:12:01;;;;;;;;;;;4.70;99.90;;;;;;4925711;29;19923;-83
2023/03/16 04:14:29;;;;;;;;;;;4.60;99.90;;;;;;4932774;29;19911;-85
2023/03/16 04:16:56;;;;;;;;;;;4.70;99.90;;;;;;4924138;29;20025;-85
2023/03/16 04:19:30;;;;;;;;;;;4.70;99.90;;;;;;4913086;29;19923;-85
2023/03/16 04:21:57;;;;;;;;;;;4.70;99.90;;;;;;4922390;29;19990;-85
2023/03/16 04:24:24;;;;;;;;;;;4.70;99.90;;;;;;4920735;29;19930;-84
2023/03/16 04:26:53;;;;;;;;;;;4.60;99.90;;;;;;4936393;28;19929;-84
2023/03/16 04:29:21;;;;;;;;;;;4.60;99.90;;;;;;4938751;29;20359;-83
2023/03/16 04:31:49;;;;;;;;;;;4.60;99.90;;;;;;4927708;29;19937;-82
2023/03/16 04:34:18;;;;;;;;;;;4.60;99.90;;;;;;4923179;29;19962;-84
2023/03/16 04:36:45;;;;;;;;;;;4.60;99.90;;;;;;4927847;29;19923;-84
2023/03/16 04:39:12;;;;;;;;;;;4.70;99.90;;;;;;4925156;29;20379;-85
2023/03/16 04:41:39;;;;;;;;;;;4.60;99.90;;;;;;4924066;29;19923;-84
2023/03/16 04:44:13;;;;;;;;;;;4.70;99.90;;;;;;4924210;29;19927;-85
2023/03/16 04:46:42;;;;;;;;;;;4.70;99.90;;;;;;4924130;29;19923;-85
2023/03/16 04:49:10;;;;;;;;;;;4.60;99.90;;;;;;4924604;29;20021;-85
2023/03/16 04:51:41;;;;;;;;;;;4.70;99.90;;;;;;4923651;29;20406;-84
2023/03/16 04:54:10;;;;;;;;;;;4.70;99.90;;;;;;4923804;29;20367;-83
2023/03/16 04:56:41;;;;;;;;;;;4.70;99.90;;;;;;4923769;29;19999;-82
2023/03/16 04:59:14;;;;;;;;;;;4.80;99.90;;;;;;4926399;29;19927;-83
2023/03/16 05:02:08;;;;;;;;;;;4.80;99.90;;;;;;4926265;29;19938;-82
2023/03/16 05:04:36;;;;;;;;;;;4.80;99.90;;;;;;4919794;29;20471;-83
2023/03/16 05:07:04;;;;;;;;;;;4.80;99.90;;;;;;4923169;29;19911;-83
2023/03/16 05:09:36;;;;;;;;;;;4.80;99.90;;;;;;4921750;29;19923;-83
2023/03/16 05:12:03;;;;;;;;;;;4.80;99.90;;;;;;4914557;29;19930;-83
2023/03/16 05:14:34;;;;;;;;;;;4.80;99.90;;;;;;4927875;29;19942;-84
2023/03/16 05:17:15;;;;;;;;;;;4.80;99.90;;;;;;4923189;29;19938;-83
2023/03/16 05:19:45;;;;;;;;;;;4.80;99.90;;;;;;4920447;29;20267;-83
2023/03/16 05:22:13;;;;;;;;;;;4.80;99.90;;;;;;4923260;29;19983;-86
2023/03/16 05:24:50;;;;;;;;;;;4.70;99.90;;;;;;4922798;29;19962;-85
2023/03/16 05:27:17;;;;;;;;;;;4.70;99.90;;;;;;4922590;29;20395;-85
2023/03/16 05:29:45;;;;;;;;;;;4.80;99.90;;;;;;4923540;29;20526;-85
2023/03/16 05:32:13;;;;;;;;;;;4.80;99.90;;;;;;4941098;29;20319;-85
2023/03/16 05:34:43;;;;;;;;;;;4.80;99.90;;;;;;4935949;29;20054;-85
2023/03/16 05:37:10;;;;;;;;;;;4.70;99.90;;;;;;4923069;29;19933;-85
2023/03/16 05:39:37;;;;;;;;;;;4.80;99.90;;;;;;4925175;29;19922;-85
2023/03/16 05:42:04;;;;;;;;;;;4.80;99.90;;;;;;4926177;29;19927;-85
2023/03/16 05:44:49;;;;;;;;;;;4.80;99.90;;;;;;4922941;29;19923;-85
2023/03/16 05:47:24;;;;;;;;;;;4.80;99.90;;;;;;4923556;29;20420;-85
2023/03/16 05:49:57;;;;;;;;;;;4.90;99.90;;;;;;4923353;29;20550;-86
2023/03/16 05:52:38;;;;;;;;;;;4.90;99.90;;;;;;4921855;29;20026;-86
2023/03/16 05:55:13;;;;;;;;;;;4.90;99.90;;;;;;4921319;29;19934;-86
2023/03/16 05:57:40;;;;;;;;;;;5.00;99.90;;;;;;4924694;29;19938;-85
2023/03/16 06:00:13;;;;;;;;;;;5.00;99.90;;;;;;4940495;29;19927;-85
2023/03/16 06:02:41;;;;;;;;;;;5.00;99.90;;;;;;4940419;29;19926;-84
2023/03/16 06:05:11;;;;;;;;;;;5.10;99.90;;;;;;4924720;29;19998;-85
2023/03/16 06:07:41;;;;;;;;;;;5.10;99.90;;;;;;4922036;29;19926;-84
2023/03/16 06:10:10;;;;;;;;;;;5.10;99.90;;;;;;4920504;29;19933;-84
2023/03/16 06:12:38;;;;;;;;;;;5.00;99.90;;;;;;4930452;29;19914;-86
2023/03/16 06:15:07;;;;;;;;;;;5.20;99.90;;;;;;4916724;29;19934;-84
2023/03/16 06:17:35;;;;;;;;;;;5.20;99.90;;;;;;4921939;29;20026;-83
2023/03/16 06:20:04;;;;;;;;;;;5.30;99.90;;;;;;4922337;29;19929;-86
2023/03/16 06:22:32;;;;;;;;;;;5.30;99.90;;;;;;4922772;29;19934;-84
2023/03/16 06:24:59;;;;;;;;;;;5.40;99.90;;;;;;4922359;29;19961;-83
2023/03/16 06:27:27;;;;;;;;;;;5.40;99.90;;;;;;4921185;29;19967;-84
2023/03/16 06:30:12;;;;;;;;;;;5.50;99.90;;;;;;4913897;29;20564;-84
2023/03/16 06:32:40;;;;;;;;;;;5.50;99.90;;;;;;4919044;29;19971;-84
2023/03/16 06:35:08;;;;;;;;;;;5.50;99.90;;;;;;4927425;29;19971;-83
2023/03/16 06:37:38;;;;;;;;;;;5.60;99.90;;;;;;4922058;29;19927;-84
2023/03/16 06:40:19;;;;;;;;;;;5.60;99.90;;;;;;4915699;29;19911;-81
2023/03/16 06:42:46;;;;;;;;;;;5.70;99.90;;;;;;4922744;29;20383;-84
2023/03/16 06:45:20;;;;;;;;;;;5.80;99.90;;;;;;4921314;29;19974;-83
2023/03/16 06:47:50;;;;;;;;;;;5.90;99.90;;;;;;4921871;29;20053;-83
2023/03/16 06:50:17;;;;;;;;;;;6.00;99.90;;;;;;4937743;29;20307;-84
2023/03/16 06:52:46;;;;;;;;;;;6.20;99.90;;;;;;4920201;29;19929;-83
2023/03/16 06:55:13;;;;;;;;;;;6.40;99.90;;;;;;4920333;29;20299;-83
2023/03/16 06:57:44;;;;;;;;;;;6.50;99.90;;;;;;4921291;29;20280;-83
2023/03/16 07:00:14;;;;;;;;;;;6.70;99.90;;;;;;4921886;29;19931;-82
2023/03/16 07:02:42;;;;;;;;;;;7.00;99.90;;;;;;4920278;29;20014;-83
2023/03/16 07:05:12;;;;;;;;;;;7.10;99.90;;;;;;4919969;29;19978;-84
2023/03/16 07:07:41;;;;;;;;;;;7.20;99.90;;;;;;4921118;29;19947;-84
2023/03/16 07:10:10;;;;;;;;;;;7.30;99.90;;;;;;4920289;29;19927;-83
2023/03/16 07:12:42;;;;;;;;;;;7.40;99.90;;;;;;4921422;29;20028;-84
2023/03/16 07:15:09;;;;;;;;;;;7.40;99.90;;;;;;4922312;29;19923;-83
2023/03/16 07:17:37;;;;;;;;;;;7.40;99.90;;;;;;4919948;29;19954;-83
2023/03/16 07:20:09;;;;;;;;;;;7.40;99.90;;;;;;4922137;29;19933;-83
2023/03/16 07:22:37;;;;;;;;;;;7.40;99.90;;;;;;4918872;29;19995;-83
2023/03/16 07:25:13;;;;;;;;;;;7.40;99.90;;;;;;4920113;29;19928;-83
2023/03/16 07:27:46;;;;;;;;;;;7.50;99.90;;;;;;4920960;29;20526;-83
2023/03/16 07:30:17;;;;;;;;;;;7.50;99.90;;;;;;4921634;29;19934;-84
2023/03/16 07:32:46;;;;;;;;;;;7.40;99.90;;;;;;4919610;29;20025;-83
2023/03/16 07:35:13;;;;;;;;;;;7.60;99.90;;;;;;4920358;29;19934;-84
2023/03/16 07:37:40;;;;;;;;;;;7.70;99.90;;;;;;4918874;29;19930;-84
2023/03/16 07:40:12;;;;;;;;;;;7.70;99.90;;;;;;4917978;29;20030;-83
2023/03/16 07:42:41;;;;;;;;;;;7.70;99.90;;;;;;4919922;29;19929;-84
2023/03/16 07:45:16;;;;;;;;;;;7.70;99.90;;;;;;4932521;29;19958;-84
2023/03/16 07:47:44;;;;;;;;;;;7.60;99.90;;;;;;4938269;29;19923;-82
2023/03/16 07:50:34;;;;;;;;;;;7.60;99.90;;;;;;4915151;29;20021;-82
2023/03/16 07:53:01;;;;;;;;;;;7.50;99.90;;;;;;4908623;29;20435;-82
2023/03/16 07:55:30;;;;;;;;;;;7.40;99.90;;;;;;4900049;29;19928;-81
2023/03/16 07:57:57;;;;;;;;;;;7.40;99.90;;;;;;4900491;29;19931;-81
2023/03/16 08:00:30;;;;;;;;;;;7.30;99.90;;;;;;4919539;29;20083;-81
2023/03/16 08:02:57;;;;;;;;;;;7.30;99.90;;;;;;4919045;29;19927;-81
2023/03/16 08:05:24;;;;;;;;;;;7.30;99.90;;;;;;4918213;29;19962;-81
2023/03/16 08:07:58;;;;;;;;;;;7.30;99.90;;;;;;4916611;29;19923;-81
2023/03/16 08:10:27;;;;;;;;;;;7.30;99.90;;;;;;4916009;29;20022;-81
2023/03/16 08:13:07;;;;;;;;;;;7.40;99.90;;;;;;4917971;29;20460;-81
2023/03/16 08:15:36;;;;;;;;;;;7.50;99.90;;;;;;4915791;29;19935;-81
2023/03/16 08:18:16;;;;;;;;;;;7.50;99.90;;;;;;4920057;29;19938;-80
2023/03/16 08:20:43;;;;;;;;;;;7.60;99.90;;;;;;4920739;29;19923;-80
2023/03/16 08:23:14;;;;;;;;;;;7.70;99.90;;;;;;4918021;29;19923;-80
2023/03/16 08:25:41;;;;;;;;;;;7.90;99.90;;;;;;4918023;29;19951;-80
2023/03/16 08:28:20;;;;;;;;;;;7.70;99.90;;;;;;4918808;29;19995;-80
2023/03/16 08:30:48;;;;;;;;;;;7.80;99.90;;;;;;4918994;29;19958;-81
2023/03/16 08:33:31;;;;;;;;;;;7.90;99.90;;;;;;4917904;29;19931;-81
2023/03/16 08:35:59;;;;;;;;;;;8.00;99.90;;;;;;4948291;23;20001;-80
2023/03/16 08:38:27;;;;;;;;;;;8.00;99.90;;;;;;4947462;29;19986;-81
2023/03/16 08:40:54;;;;;;;;;;;8.00;99.90;;;;;;4955294;29;19997;-80
2023/03/16 08:43:25;;;;;;;;;;;8.00;99.90;;;;;;4955715;28;20405;-80
2023/03/16 08:45:54;;;;;;;;;;;8.00;99.90;;;;;;5105132;23;19927;-84
2023/03/16 08:48:25;;;;;;;;;;;8.00;99.90;;;;;;4928163;29;20380;-83
2023/03/16 08:50:52;;;;;;;;;;;8.10;99.90;;;;;;4914471;29;19991;-83
2023/03/16 08:53:19;;;;;;;;;;;8.10;99.90;;;;;;4910086;29;19927;-84
2023/03/16 08:55:47;;;;;;;;;;;8.10;99.90;;;;;;4915642;29;19927;-81
2023/03/16 08:58:14;;;;;;;;;;;8.20;99.90;;;;;;4916996;29;20038;-83
2023/03/16 09:00:51;;;;;;;;;;;8.40;99.90;;;;;;4906239;29;19979;-84
2023/03/16 09:03:24;;;;;;;;;;;8.40;99.90;;;;;;4918996;29;19923;-84
2023/03/16 09:05:51;;;;;;;;;;;9.00;99.90;;;;;;4922997;29;19927;-82
2023/03/16 09:08:20;;;;;;;;;;;8.80;99.90;;;;;;4909580;29;19937;-82
2023/03/16 09:10:49;;;;;;;;;;;8.90;99.90;;;;;;4911780;29;20785;-84
2023/03/16 09:13:16;;;;;;;;;;;9.10;99.90;;;;;;4906757;29;19924;-82
2023/03/16 09:15:45;;;;;;;;;;;9.40;99.90;;;;;;4905153;29;19927;-81
2023/03/16 09:18:14;;;;;;;;;;;9.20;99.90;;;;;;4910784;29;19927;-82
2023/03/16 09:20:41;;;;;;;;;;;9.20;99.90;;;;;;4905948;29;19923;-83
2023/03/16 09:23:08;;;;;;;;;;;9.30;99.90;;;;;;4913620;29;19927;-84
2023/03/16 09:25:35;;;;;;;;;;;9.40;99.90;;;;;;4916414;29;20460;-84
2023/03/16 09:28:02;;;;;;;;;;;9.40;99.90;;;;;;4913276;29;20050;-82
2023/03/16 09:30:29;;;;;;;;;;;9.50;99.90;;;;;;4913866;29;19986;-84
2023/03/16 09:32:55;;;;;;;;;;;9.50;99.90;;;;;;4914208;29;19927;-85
2023/03/16 09:35:24;;;;;;;;;;;9.70;99.90;;;;;;4919989;29;19962;-84
2023/03/16 09:37:51;;;;;;;;;;;9.90;99.90;;;;;;4910691;29;20370;-83
2023/03/16 09:40:23;;;;;;;;;;;10.20;99.90;;;;;;4912761;29;19930;-86
2023/03/16 09:42:57;;;;;;;;;;;10.30;99.90;;;;;;4919530;29;19931;-84
2023/03/16 09:45:26;;;;;;;;;;;10.40;99.90;;;;;;4914726;29;19945;-85
2023/03/16 09:47:56;;;;;;;;;;;10.50;99.90;;;;;;4919840;29;19927;-85
2023/03/16 09:50:27;;;;;;;;;;;10.60;99.90;;;;;;4913694;29;19934;-84
2023/03/16 09:52:58;;;;;;;;;;;10.60;99.90;;;;;;4927718;29;19922;-85
2023/03/16 09:55:29;;;;;;;;;;;10.60;99.90;;;;;;4912941;29;19927;-85
2023/03/16 09:57:57;;;;;;;;;;;10.40;99.90;;;;;;4922717;29;19929;-84
2023/03/16 10:00:26;;;;;;;;;;;10.50;99.90;;;;;;4925293;29;20004;-85
2023/03/16 10:02:59;;;;;;;;;;;10.60;99.90;;;;;;4920587;29;19937;-84
2023/03/16 10:05:27;;;;;;;;;;;10.60;99.90;;;;;;4951801;29;20281;-84
2023/03/16 10:08:03;;;;;;;;;;;10.80;99.90;;;;;;4920249;29;19927;-85
2023/03/16 10:10:45;;;;;;;;;;;10.90;99.90;;;;;;4911413;29;20273;-84
2023/03/16 10:13:16;;;;;;;;;;;10.90;99.90;;;;;;4916397;29;19911;-84
2023/03/16 10:15:44;;;;;;;;;;;10.70;99.90;;;;;;4929910;29;19927;-85
2023/03/16 10:18:13;;;;;;;;;;;10.60;99.90;;;;;;4927833;29;19964;-82
2023/03/16 10:20:44;;;;;;;;;;;10.60;99.90;;;;;;4937964;29;19923;-83
2023/03/16 10:23:16;;;;;;;;;;;10.50;99.90;;;;;;4937393;29;19959;-83
2023/03/16 10:25:44;;;;;;;;;;;10.60;99.90;;;;;;4934708;29;20451;-84
2023/03/16 10:28:13;;;;;;;;;;;10.70;99.90;;;;;;4918264;29;20526;-84
2023/03/16 10:30:41;;;;;;;;;;;10.70;99.90;;;;;;4918888;29;19934;-85
2023/03/16 10:33:14;;;;;;;;;;;10.70;99.90;;;;;;4917468;29;19951;-87
2023/03/16 10:35:46;;;;;;;;;;;10.60;99.90;;;;;;4913733;29;19934;-85
2023/03/16 10:38:26;;;;;;;;;;;10.60;99.90;;;;;;4910454;29;19923;-85
2023/03/16 10:40:53;;;;;;;;;;;10.70;99.90;;;;;;4921349;29;19923;-85
2023/03/16 10:43:22;;;;;;;;;;;10.80;99.90;;;;;;4923010;29;19922;-84
2023/03/16 10:45:48;;;;;;;;;;;11.20;99.90;;;;;;4925882;29;19927;-83
2023/03/16 10:48:17;;;;;;;;;;;11.60;99.90;;;;;;4917279;29;20026;-84
2023/03/16 10:50:50;;;;;;;;;;;12.10;99.90;;;;;;4924366;29;19927;-84
2023/03/16 10:53:19;;;;;;;;;;;12.20;99.90;;;;;;4908781;29;20023;-84
2023/03/16 10:55:47;;;;;;;;;;;12.40;99.90;;;;;;4907644;29;19946;-86
2023/03/16 10:58:24;;;;;;;;;;;12.60;99.90;;;;;;4916091;29;19930;-85
2023/03/16 11:00:52;;;;;;;;;;;12.70;99.90;;;;;;4920136;29;19955;-84
2023/03/16 11:03:23;;;;;;;;;;;12.80;99.90;;;;;;4922290;29;19991;-85
2023/03/16 11:06:04;;;;;;;;;;;13.10;99.90;;;;;;4908992;29;19928;-86
2023/03/16 11:08:32;;;;;;;;;;;13.20;99.90;;;;;;4919236;29;20306;-88
2023/03/16 11:11:08;;;;;;;;;;;13.20;99.90;;;;;;4906485;29;19922;-83
2023/03/16 11:13:36;;;;;;;;;;;13.20;99.90;;;;;;4911927;29;19982;-84
2023/03/16 11:16:06;;;;;;;;;;;13.20;99.90;;;;;;4908816;29;20617;-83
2023/03/16 11:18:37;;;;;;;;;;;14.20;99.90;;;;;;4913420;29;20382;-85
2023/03/16 11:21:08;;;;;;;;;;;13.50;99.90;;;;;;4908191;29;19923;-84
2023/03/16 11:23:37;;;;;;;;;;;13.70;99.90;;;;;;4906077;29;20018;-81
2023/03/16 11:26:06;;;;;;;;;;;13.40;99.90;;;;;;4915348;29;20001;-83
2023/03/16 11:28:37;;;;;;;;;;;13.90;99.90;;;;;;4916769;29;20049;-84
2023/03/16 11:31:08;;;;;;;;;;;14.00;99.90;;;;;;4917139;29;19966;-83
2023/03/16 11:33:35;;;;;;;;;;;14.00;99.90;;;;;;4910813;29;19923;-84
2023/03/16 11:36:12;;;;;;;;;;;13.90;99.90;;;;;;4916965;29;19927;-84
2023/03/16 11:38:42;;;;;;;;;;;14.00;99.90;;;;;;4921172;29;19927;-84
2023/03/16 11:41:10;;;;;;;;;;;14.00;99.90;;;;;;4914963;29;19927;-83
2023/03/16 11:44:00;;;;;;;;;;;14.10;99.90;;;;;;4916204;29;19931;-83
2023/03/16 11:46:28;;;;;;;;;;;14.10;99.90;;;;;;4917293;29;20316;-83
2023/03/16 11:49:10;;;;;;;;;;;14.00;99.90;;;;;;4899878;29;19997;-84
2023/03/16 11:51:43;;;;;;;;;;;14.10;99.90;;;;;;4907455;29;19927;-84
2023/03/16 11:54:27;;;;;;;;;;;14.10;99.90;;;;;;4906102;29;19934;-84
2023/03/16 11:56:57;;;;;;;;;;;14.20;99.90;;;;;;4903996;29;19930;-84
2023/03/16 11:59:49;;;;;;;;;;;14.20;99.90;;;;;;4905664;29;19937;-82
2023/03/16 12:02:24;;;;;;;;;;;14.30;99.90;;;;;;4898416;29;19928;-84
2023/03/16 12:04:58;;;;;;;;;;;14.30;99.90;;;;;;4901216;29;19927;-84
2023/03/16 12:07:35;;;;;;;;;;;14.20;99.90;;;;;;4886989;29;19927;-84
2023/03/16 12:10:32;;;;;;;;;;;14.10;99.90;;;;;;4913631;29;19934;-84
2023/03/16 12:13:09;;;;;;;;;;;14.00;99.90;;;;;;4838530;29;20410;-83
2023/03/16 12:15:40;;;;;;;;;;;14.00;99.90;;;;;;4901892;29;20393;-84
2023/03/16 12:18:12;;;;;;;;;;;14.10;99.90;;;;;;4901171;29;19942;-85
2023/03/16 12:20:41;;;;;;;;;;;14.00;99.90;;;;;;4892791;29;19927;-83
2023/03/16 12:23:12;;;;;;;;;;;14.00;99.90;;;;;;4905808;29;20009;-84
2023/03/16 12:25:41;;;;;;;;;;;14.00;99.90;;;;;;4923013;29;19974;-83
2023/03/16 12:28:14;;;;;;;;;;;14.00;99.90;;;;;;4919256;29;19981;-83
2023/03/16 12:30:48;;;;;;;;;;;13.90;99.90;;;;;;4915516;29;20018;-83
2023/03/16 12:33:21;;;;;;;;;;;13.90;99.90;;;;;;4908074;29;20314;-83
2023/03/16 12:35:51;;;;;;;;;;;13.80;99.90;;;;;;4901767;29;19935;-83
2023/03/16 12:38:26;;;;;;;;;;;13.90;99.90;;;;;;4899555;29;19949;-84
2023/03/16 12:40:59;;;;;;;;;;;13.90;99.90;;;;;;4915526;29;19927;-83
2023/03/16 12:43:39;;;;;;;;;;;14.00;99.90;;;;;;4901059;29;19928;-84
2023/03/16 12:46:08;;;;;;;;;;;14.20;99.90;;;;;;4908633;29;19927;-84
2023/03/16 12:48:37;;;;;;;;;;;14.20;99.90;;;;;;4928079;29;20077;-84
2023/03/16 12:51:04;;;;;;;;;;;14.20;99.90;;;;;;4925082;29;19952;-83
2023/03/16 12:53:44;;;;;;;;;;;14.20;99.90;;;;;;4937156;29;19980;-84
2023/03/16 12:56:12;;;;;;;;;;;14.10;99.90;;;;;;4913190;29;19948;-84
2023/03/16 12:58:44;;;;;;;;;;;14.10;99.90;;;;;;4921243;29;19926;-82
2023/03/16 13:01:12;;;;;;;;;;;14.00;99.90;;;;;;4911943;29;19934;-84
2023/03/16 13:03:39;;;;;;;;;;;14.00;99.90;;;;;;4924302;29;19927;-82
2023/03/16 13:06:06;;;;;;;;;;;14.00;99.90;;;;;;4903400;29;19950;-84
2023/03/16 13:08:41;;;;;;;;;;;14.10;99.90;;;;;;4905541;29;20338;-84
2023/03/16 13:11:10;;;;;;;;;;;14.20;99.90;;;;;;4911449;29;19931;-83
2023/03/16 13:13:48;;;;;;;;;;;14.00;99.90;;;;;;4911462;29;19931;-83
2023/03/16 13:16:23;;;;;;;;;;;14.60;99.90;;;;;;4902193;29;19974;-84
2023/03/16 13:18:51;;;;;;;;;;;14.80;99.90;;;;;;4914748;29;20576;-83
2023/03/16 13:21:18;;;;;;;;;;;15.00;99.90;;;;;;4922068;29;19933;-85
2023/03/16 13:23:57;;;;;;;;;;;14.90;99.90;;;;;;4923566;29;19931;-83
2023/03/16 13:26:35;;;;;;;;;;;14.90;99.90;;;;;;4912327;29;19955;-84
2023/03/16 13:29:06;;;;;;;;;;;14.80;99.90;;;;;;4926718;29;19988;-83
2023/03/16 13:31:35;;;;;;;;;;;14.80;99.90;;;;;;4910962;29;20401;-84
2023/03/16 13:34:06;;;;;;;;;;;14.80;99.90;;;;;;4904028;29;19970;-84
2023/03/16 13:36:34;;;;;;;;;;;14.80;99.90;;;;;;4904146;29;19934;-83
2023/03/16 13:39:04;;;;;;;;;;;14.70;99.90;;;;;;4916007;29;19930;-83
2023/03/16 13:41:33;;;;;;;;;;;14.70;99.90;;;;;;4901665;29;20026;-83
2023/03/16 13:43:59;;;;;;;;;;;14.80;99.90;;;;;;4911490;29;19954;-83
2023/03/16 13:46:28;;;;;;;;;;;14.70;99.90;;;;;;4911858;29;20449;-83
2023/03/16 13:48:57;;;;;;;;;;;14.70;99.90;;;;;;4900371;29;19934;-83
2023/03/16 13:51:23;;;;;;;;;;;14.60;99.90;;;;;;4911585;29;20305;-84
2023/03/16 13:53:50;;;;;;;;;;;14.60;99.90;;;;;;4913787;29;19923;-85
2023/03/16 13:56:19;;;;;;;;;;;14.60;99.90;;;;;;4926873;29;20002;-87
2023/03/16 13:58:48;;;;;;;;;;;14.60;99.90;;;;;;4925830;29;19931;-87
2023/03/16 14:01:19;;;;;;;;;;;14.60;99.90;;;;;;4921291;29;19927;-87
2023/03/16 14:03:47;;;;;;;;;;;14.70;99.90;;;;;;4920429;29;19931;-86
2023/03/16 14:06:20;;;;;;;;;;;14.80;99.90;;;;;;4929059;29;19923;-85
2023/03/16 14:08:49;;;;;;;;;;;14.80;99.90;;;;;;4913567;29;19935;-85
2023/03/16 14:11:16;;;;;;;;;;;14.90;99.90;;;;;;4898511;29;19927;-85
2023/03/16 14:13:43;;;;;;;;;;;14.90;99.90;;;;;;4909672;29;19927;-84
2023/03/16 14:16:15;;;;;;;;;;;15.00;99.90;;;;;;4913939;29;21365;-86
2023/03/16 14:18:45;;;;;;;;;;;14.90;99.90;;;;;;4917654;29;19923;-86
2023/03/16 14:21:15;;;;;;;;;;;15.00;99.90;;;;;;4922234;29;19970;-85
2023/03/16 14:23:43;;;;;;;;;;;15.00;99.90;;;;;;4902002;29;20274;-85
2023/03/16 14:26:14;;;;;;;;;;;15.10;99.90;;;;;;4915851;29;20630;-87
2023/03/16 14:28:41;;;;;;;;;;;15.10;99.90;;;;;;4933511;29;19930;-85
2023/03/16 14:31:09;;;;;;;;;;;15.80;99.90;;;;;;4911376;29;19928;-85
2023/03/16 14:33:40;;;;;;;;;;;15.20;99.90;;;;;;4928390;29;19927;-86
2023/03/16 14:36:10;;;;;;;;;;;15.20;99.90;;;;;;4923887;29;20130;-84
2023/03/16 14:38:39;;;;;;;;;;;15.10;99.90;;;;;;4919029;29;19935;-84
2023/03/16 14:41:08;;;;;;;;;;;15.10;99.90;;;;;;4900230;29;20592;-84
2023/03/16 14:43:39;;;;;;;;;;;15.00;99.90;;;;;;4900521;29;19923;-83